Time;durP1;ratioP1;P1;durP2;ratioP2;P2;SDS_P1;SDS_P2;PMS_P1;PMS_P2;Temp;Humidity;BMP_temperature;BMP_pressure;BME280_temperature;BME280_humidity;BME280_pressure;Samples;Min_cycle;Max_cycle;Signal;HPM_P1;HPM_P2
2021/12/26 00:00:29;;;;;;;25.30;17.20;;;;;;;;;;5053326;28;20434;-70
2021/12/26 00:02:55;;;;;;;21.50;16.17;;;;;;;;;;5053134;28;20461;-69
2021/12/26 00:05:21;;;;;;;24.33;16.13;;;;;;;;;;5052891;28;20509;-69
2021/12/26 00:07:48;;;;;;;23.67;16.03;;;;;;;;;;5052955;28;20449;-69
2021/12/26 00:10:15;;;;;;;23.50;15.23;;;;;;;;;;5052824;28;20455;-68
2021/12/26 00:12:41;;;;;;;25.13;16.67;;;;;;;;;;5052985;28;20474;-68
2021/12/26 00:15:07;;;;;;;32.73;15.77;;;;;;;;;;5053009;28;20433;-70
2021/12/26 00:17:33;;;;;;;26.40;16.00;;;;;;;;;;5052925;28;20494;-70
2021/12/26 00:19:59;;;;;;;20.53;15.40;;;;;;;;;;5052985;28;20399;-66
2021/12/26 00:22:26;;;;;;;28.93;16.03;;;;;;;;;;5052980;28;20387;-66
2021/12/26 00:24:52;;;;;;;19.80;14.73;;;;;;;;;;5055825;28;20395;-66
2021/12/26 00:27:19;;;;;;;25.33;15.40;;;;;;;;;;5056741;28;20502;-66
2021/12/26 00:29:48;;;;;;;36.90;15.93;;;;;;;;;;5056554;28;20801;-63
2021/12/26 00:32:14;;;;;;;23.07;16.27;;;;;;;;;;5056518;28;20399;-65
2021/12/26 00:34:40;;;;;;;42.03;16.50;;;;;;;;;;5056495;28;20399;-66
2021/12/26 00:37:06;;;;;;;29.43;17.37;;;;;;;;;;5056596;28;20758;-69
2021/12/26 00:39:33;;;;;;;31.23;18.00;;;;;;;;;;5056383;28;20407;-67
2021/12/26 00:41:59;;;;;;;31.13;17.73;;;;;;;;;;5056556;28;20410;-64
2021/12/26 00:44:25;;;;;;;23.97;16.17;;;;;;;;;;5056277;28;20411;-68
2021/12/26 00:46:53;;;;;;;38.23;17.80;;;;;;;;;;5056246;28;20467;-68
2021/12/26 00:49:20;;;;;;;27.77;15.70;;;;;;;;;;5056388;28;20529;-65
2021/12/26 00:51:46;;;;;;;29.30;16.67;;;;;;;;;;5056206;28;20403;-70
2021/12/26 00:54:12;;;;;;;25.50;16.57;;;;;;;;;;5056016;28;20399;-69
2021/12/26 00:56:38;;;;;;;26.80;16.83;;;;;;;;;;5056016;28;20411;-69
2021/12/26 00:59:05;;;;;;;21.10;15.30;;;;;;;;;;5055879;28;20400;-70
2021/12/26 01:01:31;;;;;;;27.60;14.90;;;;;;;;;;5055927;28;20410;-66
2021/12/26 01:03:57;;;;;;;32.83;15.80;;;;;;;;;;5055853;28;20774;-70
2021/12/26 01:06:24;;;;;;;27.70;14.50;;;;;;;;;;5055842;28;20466;-70
2021/12/26 01:08:51;;;;;;;21.23;14.37;;;;;;;;;;5056097;28;20407;-70
2021/12/26 01:11:31;;;;;;;18.83;13.70;;;;;;;;;;5055544;28;20466;-67
2021/12/26 01:13:58;;;;;;;22.20;14.00;;;;;;;;;;5055668;28;20870;-69
2021/12/26 01:16:25;;;;;;;20.87;14.43;;;;;;;;;;5055887;28;20484;-70
2021/12/26 01:18:51;;;;;;;22.60;14.43;;;;;;;;;;5055548;28;20754;-67
2021/12/26 01:21:19;;;;;;;18.90;13.73;;;;;;;;;;5055580;28;20431;-67
2021/12/26 01:23:47;;;;;;;17.63;12.90;;;;;;;;;;5055761;28;20438;-67
2021/12/26 01:26:13;;;;;;;21.57;13.07;;;;;;;;;;5054280;28;20458;-69
2021/12/26 01:28:39;;;;;;;19.00;12.13;;;;;;;;;;5055444;28;20402;-68
2021/12/26 01:31:06;;;;;;;16.33;12.07;;;;;;;;;;5055660;28;20776;-66
2021/12/26 01:33:32;;;;;;;19.53;12.87;;;;;;;;;;5055644;28;20766;-69
2021/12/26 01:35:58;;;;;;;20.07;13.40;;;;;;;;;;5054828;28;20411;-64
2021/12/26 01:38:24;;;;;;;15.80;11.50;;;;;;;;;;5055280;28;20753;-69
2021/12/26 01:40:53;;;;;;;19.30;11.83;;;;;;;;;;5055150;28;20418;-69
2021/12/26 01:43:20;;;;;;;20.23;12.50;;;;;;;;;;5055167;28;20437;-69
2021/12/26 01:45:47;;;;;;;15.93;11.10;;;;;;;;;;5055280;28;20451;-70
2021/12/26 01:48:13;;;;;;;18.40;12.50;;;;;;;;;;5055041;28;20498;-66
2021/12/26 01:50:40;;;;;;;17.07;12.17;;;;;;;;;;5055262;28;20494;-69
2021/12/26 01:53:06;;;;;;;15.27;10.70;;;;;;;;;;5054948;28;20940;-69
2021/12/26 01:55:39;;;;;;;17.93;11.53;;;;;;;;;;5055254;28;20410;-70
2021/12/26 01:58:06;;;;;;;17.80;12.33;;;;;;;;;;5055044;28;20410;-70
2021/12/26 02:00:33;;;;;;;16.57;10.67;;;;;;;;;;5054779;28;20412;-70
2021/12/26 02:02:59;;;;;;;15.33;11.63;;;;;;;;;;5054754;28;20795;-70
2021/12/26 02:05:25;;;;;;;16.20;11.97;;;;;;;;;;5054639;28;20427;-69
2021/12/26 02:07:51;;;;;;;13.87;11.40;;;;;;;;;;5054737;28;20407;-68
2021/12/26 02:10:17;;;;;;;17.07;11.90;;;;;;;;;;5054494;28;20936;-66
2021/12/26 02:12:43;;;;;;;16.83;12.13;;;;;;;;;;5054602;28;20411;-65
2021/12/26 02:15:09;;;;;;;17.90;11.80;;;;;;;;;;5054472;28;20486;-65
2021/12/26 02:17:36;;;;;;;18.00;12.67;;;;;;;;;;5054540;28;20448;-65
2021/12/26 02:20:14;;;;;;;17.23;11.67;;;;;;;;;;5054466;28;20406;-64
2021/12/26 02:22:44;;;;;;;16.37;11.50;;;;;;;;;;5054671;28;20450;-65
2021/12/26 02:27:31;;;;;;;14.70;10.90;;;;;;;;;;5054360;28;20391;-66
2021/12/26 02:27:56;;;;;;;14.17;11.20;;;;;;;;;;5053873;28;20423;-67
2021/12/26 02:30:23;;;;;;;17.83;12.37;;;;;;;;;;5054492;28;20502;-65
2021/12/26 02:32:50;;;;;;;13.93;11.00;;;;;;;;;;5054139;28;20924;-65
2021/12/26 02:35:19;;;;;;;18.07;11.77;;;;;;;;;;5054386;28;20410;-65
2021/12/26 02:37:45;;;;;;;12.97;10.23;;;;;;;;;;5054040;28;20485;-67
2021/12/26 02:40:11;;;;;;;13.20;10.33;;;;;;;;;;5054366;28;20498;-65
2021/12/26 02:42:37;;;;;;;12.60;11.10;;;;;;;;;;5054142;28;20453;-68
2021/12/26 02:45:04;;;;;;;14.23;11.50;;;;;;;;;;5054000;28;20426;-67
2021/12/26 02:47:31;;;;;;;16.57;11.07;;;;;;;;;;5051856;28;20885;-69
2021/12/26 02:49:58;;;;;;;12.80;10.93;;;;;;;;;;5053845;28;20950;-67
2021/12/26 02:52:24;;;;;;;18.00;11.80;;;;;;;;;;5053890;28;20801;-70
2021/12/26 02:54:50;;;;;;;15.13;11.37;;;;;;;;;;5053916;28;20396;-69
2021/12/26 02:57:16;;;;;;;12.20;9.87;;;;;;;;;;5053760;28;20419;-68
2021/12/26 02:59:42;;;;;;;17.10;11.53;;;;;;;;;;5053810;28;20498;-70
2021/12/26 03:02:08;;;;;;;14.70;11.43;;;;;;;;;;5053987;28;20418;-69
2021/12/26 03:04:35;;;;;;;16.80;10.83;;;;;;;;;;5053740;28;20931;-71
2021/12/26 03:07:04;;;;;;;16.63;11.27;;;;;;;;;;5053616;28;20490;-71
2021/12/26 03:09:33;;;;;;;14.30;11.33;;;;;;;;;;5053911;28;20379;-70
2021/12/26 03:12:00;;;;;;;16.83;11.77;;;;;;;;;;5053751;28;20600;-71
2021/12/26 03:14:26;;;;;;;19.00;12.50;;;;;;;;;;5053816;28;20441;-70
2021/12/26 03:16:52;;;;;;;15.30;12.17;;;;;;;;;;5053541;28;20835;-65
2021/12/26 03:19:18;;;;;;;13.73;10.80;;;;;;;;;;5053451;28;20403;-64
2021/12/26 03:21:44;;;;;;;13.20;10.80;;;;;;;;;;5053724;28;20491;-68
2021/12/26 03:24:10;;;;;;;16.20;11.27;;;;;;;;;;5053750;28;20842;-66
2021/12/26 03:26:36;;;;;;;11.80;10.30;;;;;;;;;;5053588;28;20561;-66
2021/12/26 03:29:02;;;;;;;15.20;11.10;;;;;;;;;;5053468;28;20482;-65
2021/12/26 03:31:28;;;;;;;15.53;9.93;;;;;;;;;;5053705;28;20442;-65
2021/12/26 03:33:54;;;;;;;14.67;11.17;;;;;;;;;;5053435;28;20470;-65
2021/12/26 03:36:20;;;;;;;15.73;11.47;;;;;;;;;;5053377;28;20882;-67
2021/12/26 03:38:46;;;;;;;14.80;10.90;;;;;;;;;;5053261;28;20404;-65
2021/12/26 03:41:13;;;;;;;15.90;11.03;;;;;;;;;;5053599;28;20452;-67
2021/12/26 03:43:39;;;;;;;18.67;11.37;;;;;;;;;;5053544;28;20421;-67
2021/12/26 03:46:05;;;;;;;12.33;10.00;;;;;;;;;;5053108;28;20941;-66
2021/12/26 03:48:31;;;;;;;14.67;11.00;;;;;;;;;;5053266;28;20414;-70
2021/12/26 03:50:58;;;;;;;14.77;11.97;;;;;;;;;;5053141;28;20418;-69
2021/12/26 03:53:24;;;;;;;15.17;10.83;;;;;;;;;;5053593;28;20390;-68
2021/12/26 03:55:51;;;;;;;11.73;9.80;;;;;;;;;;5053200;28;20545;-70
2021/12/26 03:58:17;;;;;;;15.13;11.10;;;;;;;;;;5055339;28;20410;-71
2021/12/26 04:00:44;;;;;;;13.63;10.97;;;;;;;;;;5057138;28;20413;-70
2021/12/26 04:03:10;;;;;;;15.53;11.67;;;;;;;;;;5057336;28;20410;-68
2021/12/26 04:05:36;;;;;;;10.43;9.33;;;;;;;;;;5057010;28;20454;-66
2021/12/26 04:08:03;;;;;;;13.27;10.37;;;;;;;;;;5056898;28;20407;-66
2021/12/26 04:10:29;;;;;;;14.73;11.57;;;;;;;;;;5056791;28;20554;-66
2021/12/26 04:12:55;;;;;;;17.37;11.00;;;;;;;;;;5056916;28;20411;-66
2021/12/26 04:15:22;;;;;;;16.43;11.60;;;;;;;;;;5056837;28;20400;-68
2021/12/26 04:17:54;;;;;;;13.30;10.83;;;;;;;;;;5056846;28;20403;-65
2021/12/26 04:20:22;;;;;;;13.30;10.60;;;;;;;;;;5056721;28;20757;-69
2021/12/26 04:22:48;;;;;;;12.80;11.13;;;;;;;;;;5056763;28;20450;-68
2021/12/26 04:25:14;;;;;;;15.83;10.90;;;;;;;;;;5056573;28;20434;-68
2021/12/26 04:27:40;;;;;;;11.87;9.43;;;;;;;;;;5056573;28;20882;-68
2021/12/26 04:30:08;;;;;;;11.20;9.10;;;;;;;;;;5056554;28;20402;-68
2021/12/26 04:32:34;;;;;;;11.67;9.73;;;;;;;;;;5056818;28;20789;-70
2021/12/26 04:35:00;;;;;;;12.33;9.37;;;;;;;;;;5056552;28;20399;-65
2021/12/26 04:37:26;;;;;;;14.37;9.97;;;;;;;;;;5056651;28;20395;-65
2021/12/26 04:39:52;;;;;;;11.93;10.20;;;;;;;;;;5056442;28;20403;-65
2021/12/26 04:42:18;;;;;;;14.30;9.90;;;;;;;;;;5056427;28;20421;-67
2021/12/26 04:44:44;;;;;;;14.93;11.47;;;;;;;;;;5055065;28;20814;-67
2021/12/26 04:47:10;;;;;;;14.33;10.20;;;;;;;;;;5056213;28;20462;-64
2021/12/26 04:49:36;;;;;;;14.27;9.70;;;;;;;;;;5056221;28;20435;-64
2021/12/26 04:52:02;;;;;;;11.93;9.73;;;;;;;;;;5056606;28;20399;-65
2021/12/26 04:54:28;;;;;;;12.00;9.63;;;;;;;;;;5056236;28;20457;-67
2021/12/26 04:56:54;;;;;;;12.03;9.47;;;;;;;;;;5056342;28;20806;-64
2021/12/26 04:59:20;;;;;;;10.30;9.30;;;;;;;;;;5056078;28;20399;-65
2021/12/26 05:01:46;;;;;;;11.37;9.80;;;;;;;;;;5056336;28;20404;-64
2021/12/26 05:04:12;;;;;;;12.03;9.20;;;;;;;;;;5056028;28;20767;-65
2021/12/26 05:06:38;;;;;;;12.83;10.43;;;;;;;;;;5056093;28;20809;-64
2021/12/26 05:09:05;;;;;;;16.63;10.70;;;;;;;;;;5055027;28;20541;-65
2021/12/26 05:11:32;;;;;;;15.83;11.17;;;;;;;;;;5055672;28;20466;-64
2021/12/26 05:13:58;;;;;;;13.70;10.57;;;;;;;;;;5055780;28;20478;-64
2021/12/26 05:16:24;;;;;;;17.03;11.40;;;;;;;;;;5055803;28;20852;-63
2021/12/26 05:18:50;;;;;;;14.03;11.10;;;;;;;;;;5055933;28;20415;-63
2021/12/26 05:21:16;;;;;;;13.60;10.27;;;;;;;;;;5055530;28;20403;-63
2021/12/26 05:23:42;;;;;;;12.20;10.80;;;;;;;;;;5055618;28;20395;-63
2021/12/26 05:26:08;;;;;;;13.93;11.00;;;;;;;;;;5055367;28;20474;-64
2021/12/26 05:28:35;;;;;;;14.17;10.97;;;;;;;;;;5055443;28;20404;-64
2021/12/26 05:31:01;;;;;;;14.60;10.10;;;;;;;;;;5055656;28;20407;-65
2021/12/26 05:33:27;;;;;;;13.80;10.33;;;;;;;;;;5055441;28;20913;-64
2021/12/26 05:35:53;;;;;;;13.70;10.77;;;;;;;;;;5055295;28;20886;-64
2021/12/26 05:38:19;;;;;;;11.03;9.43;;;;;;;;;;5055291;28;20452;-64
2021/12/26 05:40:45;;;;;;;14.67;10.83;;;;;;;;;;5055224;28;20410;-64
2021/12/26 05:43:11;;;;;;;12.53;10.83;;;;;;;;;;5055192;28;20395;-64
2021/12/26 05:45:38;;;;;;;15.60;10.63;;;;;;;;;;5055092;28;20455;-64
2021/12/26 05:48:04;;;;;;;13.07;10.53;;;;;;;;;;5055322;28;20397;-66
2021/12/26 05:50:30;;;;;;;14.43;10.53;;;;;;;;;;5055132;28;20865;-64
2021/12/26 05:52:56;;;;;;;14.50;11.10;;;;;;;;;;5054997;28;20404;-65
2021/12/26 05:55:22;;;;;;;19.07;11.93;;;;;;;;;;5054950;28;20402;-64
2021/12/26 05:57:48;;;;;;;13.17;10.10;;;;;;;;;;5054939;28;20407;-63
2021/12/26 06:00:16;;;;;;;15.03;11.00;;;;;;;;;;5054819;28;20487;-64
2021/12/26 06:02:42;;;;;;;15.00;11.40;;;;;;;;;;5054847;28;20437;-64
2021/12/26 06:05:08;;;;;;;14.03;10.70;;;;;;;;;;5054818;28;20399;-63
2021/12/26 06:07:34;;;;;;;20.20;12.63;;;;;;;;;;5054590;28;20470;-65
2021/12/26 06:10:00;;;;;;;15.40;11.07;;;;;;;;;;5054473;28;20393;-65
2021/12/26 06:12:26;;;;;;;17.77;12.33;;;;;;;;;;5054591;28;20938;-64
2021/12/26 06:14:52;;;;;;;13.83;10.83;;;;;;;;;;5054671;28;20400;-64
2021/12/26 06:17:18;;;;;;;13.40;11.20;;;;;;;;;;5054782;28;20407;-63
2021/12/26 06:19:44;;;;;;;12.67;10.23;;;;;;;;;;5054491;28;20477;-63
2021/12/26 06:22:09;;;;;;;12.07;9.87;;;;;;;;;;5054393;28;20410;-65
2021/12/26 06:24:35;;;;;;;13.70;10.17;;;;;;;;;;5054400;28;20426;-64
2021/12/26 06:27:01;;;;;;;12.90;11.23;;;;;;;;;;5054329;28;20804;-64
2021/12/26 06:29:27;;;;;;;13.33;10.70;;;;;;;;;;5054273;28;20407;-63
2021/12/26 06:31:53;;;;;;;11.47;10.13;;;;;;;;;;5054234;28;20808;-63
2021/12/26 06:34:19;;;;;;;13.47;10.97;;;;;;;;;;5054240;28;20415;-65
2021/12/26 06:36:45;;;;;;;18.67;10.67;;;;;;;;;;5054400;28;20399;-64
2021/12/26 06:39:11;;;;;;;14.07;10.70;;;;;;;;;;5054132;28;20461;-65
2021/12/26 06:41:38;;;;;;;11.37;9.83;;;;;;;;;;5054077;28;20494;-64
2021/12/26 06:44:07;;;;;;;15.37;10.97;;;;;;;;;;5053944;28;20373;-63
2021/12/26 06:46:33;;;;;;;13.40;10.37;;;;;;;;;;5053927;28;20478;-65
2021/12/26 06:48:59;;;;;;;16.07;10.13;;;;;;;;;;5053920;28;20756;-66
2021/12/26 06:51:25;;;;;;;14.83;10.17;;;;;;;;;;5053985;28;20400;-63
2021/12/26 06:53:51;;;;;;;12.40;10.50;;;;;;;;;;5053860;28;20766;-63
2021/12/26 06:56:17;;;;;;;14.30;10.87;;;;;;;;;;5053955;28;20388;-63
2021/12/26 06:58:43;;;;;;;13.43;10.00;;;;;;;;;;5053883;28;20880;-63
2021/12/26 07:01:10;;;;;;;13.67;10.47;;;;;;;;;;5053770;28;20434;-64
2021/12/26 07:03:36;;;;;;;17.10;10.50;;;;;;;;;;5053700;28;20866;-65
2021/12/26 07:06:02;;;;;;;16.83;10.77;;;;;;;;;;5053647;28;20424;-63
2021/12/26 07:08:28;;;;;;;17.03;11.97;;;;;;;;;;5053688;28;20484;-63
2021/12/26 07:10:54;;;;;;;16.80;10.83;;;;;;;;;;5053408;28;20490;-64
2021/12/26 07:13:20;;;;;;;15.40;10.93;;;;;;;;;;5053499;28;20403;-63
2021/12/26 07:15:46;;;;;;;13.80;10.80;;;;;;;;;;5053602;28;20399;-63
2021/12/26 07:18:12;;;;;;;17.30;11.30;;;;;;;;;;5053505;28;20955;-63
2021/12/26 07:20:38;;;;;;;17.17;11.13;;;;;;;;;;5053442;28;20391;-63
2021/12/26 07:23:04;;;;;;;17.20;11.10;;;;;;;;;;5053480;28;20390;-63
2021/12/26 07:25:31;;;;;;;19.60;12.00;;;;;;;;;;5053296;28;20399;-64
2021/12/26 07:27:57;;;;;;;39.90;30.30;;;;;;;;;;5053301;28;20860;-63
2021/12/26 07:30:23;;;;;;;20.73;14.53;;;;;;;;;;5053255;28;20499;-64
2021/12/26 07:32:49;;;;;;;17.07;12.53;;;;;;;;;;5056392;28;20438;-64
2021/12/26 07:35:15;;;;;;;15.97;11.43;;;;;;;;;;5060014;28;20402;-63
2021/12/26 07:37:41;;;;;;;15.40;11.43;;;;;;;;;;5059998;28;20399;-63
2021/12/26 07:40:07;;;;;;;21.83;13.90;;;;;;;;;;5059950;28;20762;-63
2021/12/26 07:42:33;;;;;;;16.67;11.60;;;;;;;;;;5059942;28;20378;-65
2021/12/26 07:44:59;;;;;;;22.67;12.93;;;;;;;;;;5059890;28;20402;-64
2021/12/26 07:47:25;;;;;;;17.40;11.87;;;;;;;;;;5059761;28;20801;-64
2021/12/26 07:49:51;;;;;;;15.83;11.67;;;;;;;;;;5059944;28;20445;-63
2021/12/26 07:52:22;;;;;;;16.43;12.40;;;;;;;;;;5059733;28;20462;-64
2021/12/26 07:54:48;;;;;;;17.67;11.33;;;;;;;;;;5059821;28;20886;-63
2021/12/26 07:57:14;;;;;;;18.50;11.63;;;;;;;;;;5060063;28;20418;-63
2021/12/26 07:59:40;;;;;;;18.77;12.53;;;;;;;;;;5059893;28;20390;-64
2021/12/26 08:02:06;;;;;;;13.33;11.17;;;;;;;;;;5058535;28;20476;-64
2021/12/26 08:04:32;;;;;;;19.00;11.10;;;;;;;;;;5059708;28;20413;-63
2021/12/26 08:06:59;;;;;;;18.00;11.67;;;;;;;;;;5059757;28;20437;-63
2021/12/26 08:09:25;;;;;;;17.63;12.00;;;;;;;;;;5059658;28;20398;-63
2021/12/26 08:11:51;;;;;;;17.93;13.90;;;;;;;;;;5059502;28;20835;-66
2021/12/26 08:14:17;;;;;;;18.53;12.33;;;;;;;;;;5059640;28;20943;-64
2021/12/26 08:16:45;;;;;;;22.43;15.33;;;;;;;;;;5059647;28;20463;-64
2021/12/26 08:19:11;;;;;;;24.67;17.00;;;;;;;;;;5059672;28;20395;-64
2021/12/26 08:21:37;;;;;;;22.07;14.93;;;;;;;;;;5059519;28;20517;-63
2021/12/26 08:24:03;;;;;;;17.50;12.80;;;;;;;;;;5059910;28;20818;-63
2021/12/26 08:26:32;;;;;;;15.57;11.23;;;;;;;;;;5059448;28;20956;-64
2021/12/26 08:28:58;;;;;;;20.70;14.47;;;;;;;;;;5059813;28;20414;-64
2021/12/26 08:31:24;;;;;;;19.77;12.47;;;;;;;;;;5059586;28;20391;-63
2021/12/26 08:33:50;;;;;;;18.23;12.40;;;;;;;;;;5059532;28;20795;-63
2021/12/26 08:36:20;;;;;;;18.63;12.47;;;;;;;;;;5059668;28;20391;-64
2021/12/26 08:38:46;;;;;;;18.50;12.77;;;;;;;;;;5059455;28;20413;-64
2021/12/26 08:41:12;;;;;;;23.20;15.80;;;;;;;;;;5059459;28;20438;-64
2021/12/26 08:43:41;;;;;;;18.97;12.80;;;;;;;;;;5057995;28;20413;-64
2021/12/26 08:46:07;;;;;;;16.17;11.53;;;;;;;;;;5055977;28;20494;-66
2021/12/26 08:48:33;;;;;;;18.50;12.47;;;;;;;;;;5056264;28;20780;-63
2021/12/26 08:50:59;;;;;;;15.83;11.57;;;;;;;;;;5056250;28;20418;-63
2021/12/26 08:53:25;;;;;;;17.83;10.50;;;;;;;;;;5056187;28;20490;-64
2021/12/26 08:55:52;;;;;;;27.63;16.00;;;;;;;;;;5056277;28;20403;-64
2021/12/26 08:58:18;;;;;;;16.63;11.97;;;;;;;;;;5056274;28;20426;-64
2021/12/26 09:00:44;;;;;;;14.67;11.63;;;;;;;;;;5056017;28;20395;-64
2021/12/26 09:03:10;;;;;;;14.93;11.63;;;;;;;;;;5055950;28;20938;-64
2021/12/26 09:05:36;;;;;;;24.30;14.90;;;;;;;;;;5056119;28;20486;-68
2021/12/26 09:08:02;;;;;;;23.77;15.13;;;;;;;;;;5055909;28;20763;-69
2021/12/26 09:10:29;;;;;;;19.30;12.63;;;;;;;;;;5055993;28;20459;-69
2021/12/26 09:12:55;;;;;;;17.60;12.50;;;;;;;;;;5055787;28;20385;-69
2021/12/26 09:15:21;;;;;;;19.10;13.40;;;;;;;;;;5055582;28;20499;-70
2021/12/26 09:17:47;;;;;;;15.80;13.00;;;;;;;;;;5055709;28;20423;-68
2021/12/26 09:20:13;;;;;;;12.97;11.33;;;;;;;;;;5055565;28;20431;-70
2021/12/26 09:22:40;;;;;;;15.80;10.50;;;;;;;;;;5055590;28;20470;-68
2021/12/26 09:25:07;;;;;;;17.30;11.27;;;;;;;;;;5055791;28;20403;-70
2021/12/26 09:27:33;;;;;;;14.57;11.43;;;;;;;;;;5055417;28;20458;-69
2021/12/26 09:29:59;;;;;;;32.30;20.27;;;;;;;;;;5055429;28;20394;-68
2021/12/26 09:32:25;;;;;;;20.80;16.10;;;;;;;;;;5055376;28;20836;-70
2021/12/26 09:34:51;;;;;;;14.40;10.40;;;;;;;;;;5055397;28;20486;-63
2021/12/26 09:37:17;;;;;;;12.70;11.47;;;;;;;;;;5055344;28;20877;-68
2021/12/26 09:39:43;;;;;;;16.80;13.87;;;;;;;;;;5055528;28;20491;-65
2021/12/26 09:42:09;;;;;;;19.10;14.23;;;;;;;;;;5055229;28;20864;-66
2021/12/26 09:44:35;;;;;;;20.33;15.00;;;;;;;;;;5055189;28;20436;-70
2021/12/26 09:47:01;;;;;;;20.47;16.40;;;;;;;;;;5055079;28;20506;-65
2021/12/26 09:49:27;;;;;;;23.23;16.43;;;;;;;;;;5055028;28;20425;-66
2021/12/26 09:51:53;;;;;;;19.07;14.63;;;;;;;;;;5055004;28;20430;-66
2021/12/26 09:54:19;;;;;;;41.70;20.40;;;;;;;;;;5055023;28;20457;-65
2021/12/26 09:56:45;;;;;;;35.30;23.70;;;;;;;;;;5054705;28;20410;-71
2021/12/26 09:59:32;;;;;;;12.13;10.90;;;;;;;;;;5054952;28;20399;-64
2021/12/26 10:02:06;;;;;;;11.90;9.30;;;;;;;;;;5054834;28;20391;-67
2021/12/26 10:04:33;;;;;;;9.30;8.17;;;;;;;;;;5055113;28;20415;-68
2021/12/26 10:07:01;;;;;;;11.27;9.90;;;;;;;;;;5054815;28;20481;-70
2021/12/26 10:09:28;;;;;;;15.83;12.00;;;;;;;;;;5054730;28;20406;-68
2021/12/26 10:11:56;;;;;;;12.27;10.97;;;;;;;;;;5054506;28;20459;-67
2021/12/26 10:14:24;;;;;;;13.23;10.33;;;;;;;;;;5054648;28;20399;-64
2021/12/26 10:16:49;;;;;;;20.43;14.40;;;;;;;;;;5054583;28;20495;-68
2021/12/26 10:19:16;;;;;;;11.87;10.67;;;;;;;;;;5054514;28;20483;-66
2021/12/26 10:21:42;;;;;;;13.23;10.57;;;;;;;;;;5054452;28;20490;-66
2021/12/26 10:24:14;;;;;;;11.70;10.50;;;;;;;;;;5054642;28;20422;-65
2021/12/26 10:26:42;;;;;;;12.30;10.87;;;;;;;;;;5054266;28;20512;-66
2021/12/26 10:29:15;;;;;;;11.30;10.20;;;;;;;;;;5054246;28;20415;-65
2021/12/26 10:31:48;;;;;;;11.83;9.93;;;;;;;;;;5054536;28;20399;-64
2021/12/26 10:34:18;;;;;;;9.73;8.80;;;;;;;;;;5054465;28;20533;-67
2021/12/26 10:36:45;;;;;;;11.83;8.87;;;;;;;;;;5054198;28;20482;-67
2021/12/26 10:39:12;;;;;;;8.77;7.87;;;;;;;;;;5054141;28;20778;-66
2021/12/26 10:41:42;;;;;;;11.43;9.50;;;;;;;;;;5054168;28;20474;-68
2021/12/26 10:44:18;;;;;;;9.90;8.90;;;;;;;;;;5054070;28;20413;-68
2021/12/26 10:46:48;;;;;;;9.67;8.77;;;;;;;;;;5054222;28;20822;-68
2021/12/26 10:49:24;;;;;;;10.57;9.30;;;;;;;;;;5054329;28;20395;-67
2021/12/26 10:51:50;;;;;;;8.53;7.83;;;;;;;;;;5053887;28;20394;-69
2021/12/26 10:54:17;;;;;;;9.43;8.60;;;;;;;;;;5053925;28;20449;-66
2021/12/26 10:57:01;;;;;;;7.77;7.13;;;;;;;;;;5054084;28;20804;-65
2021/12/26 10:59:27;;;;;;;8.70;7.57;;;;;;;;;;5053984;28;20405;-68
2021/12/26 11:01:54;;;;;;;8.17;7.47;;;;;;;;;;5053803;28;20848;-65
2021/12/26 11:04:21;;;;;;;7.70;7.20;;;;;;;;;;5053898;28;20434;-68
2021/12/26 11:07:04;;;;;;;7.40;6.90;;;;;;;;;;5053213;28;20521;-67
2021/12/26 11:09:30;;;;;;;8.47;7.77;;;;;;;;;;5053663;28;20906;-70
2021/12/26 11:12:00;;;;;;;8.40;7.60;;;;;;;;;;5053412;28;21019;-67
2021/12/26 11:14:26;;;;;;;7.43;6.93;;;;;;;;;;5053589;28;20399;-67
2021/12/26 11:16:52;;;;;;;8.70;8.10;;;;;;;;;;5053696;28;20449;-65
2021/12/26 11:19:37;;;;;;;6.73;6.33;;;;;;;;;;5053563;28;20399;-66
2021/12/26 11:22:04;;;;;;;6.57;6.17;;;;;;;;;;5053578;28;20570;-66
2021/12/26 11:24:30;;;;;;;5.67;5.37;;;;;;;;;;5053642;28;20407;-64
2021/12/26 11:26:56;;;;;;;6.80;6.40;;;;;;;;;;5053420;28;20498;-67
2021/12/26 11:29:22;;;;;;;6.60;6.30;;;;;;;;;;5053489;28;20394;-66
2021/12/26 11:31:54;;;;;;;7.10;6.63;;;;;;;;;;5053693;28;20900;-65
2021/12/26 11:34:21;;;;;;;7.67;7.10;;;;;;;;;;5053340;28;20893;-63
2021/12/26 11:36:49;;;;;;;7.63;7.10;;;;;;;;;;5053385;28;20390;-65
2021/12/26 11:39:16;;;;;;;6.73;6.37;;;;;;;;;;5053593;28;20404;-67
2021/12/26 11:41:51;;;;;;;7.80;7.20;;;;;;;;;;5053373;28;20759;-64
2021/12/26 11:44:26;;;;;;;7.40;6.90;;;;;;;;;;5053315;28;20394;-66
2021/12/26 11:46:53;;;;;;;7.73;6.47;;;;;;;;;;5053174;28;20520;-64
2021/12/26 11:49:39;;;;;;;6.80;6.40;;;;;;;;;;5053123;28;20407;-65
2021/12/26 11:52:13;;;;;;;6.20;5.80;;;;;;;;;;5053250;28;20395;-67
2021/12/26 11:54:39;;;;;;;6.23;5.93;;;;;;;;;;5053252;28;20401;-64
2021/12/26 11:57:21;;;;;;;6.90;6.40;;;;;;;;;;5053113;28;20399;-66
2021/12/26 12:00:02;;;;;;;5.77;5.47;;;;;;;;;;5053159;28;20839;-63
2021/12/26 12:02:39;;;;;;;6.77;6.37;;;;;;;;;;5053472;28;20498;-64
2021/12/26 12:05:18;;;;;;;8.47;7.80;;;;;;;;;;5053319;28;20772;-66
2021/12/26 12:07:45;;;;;;;7.57;6.93;;;;;;;;;;5052991;28;20825;-64
2021/12/26 12:10:29;;;;;;;6.90;6.40;;;;;;;;;;5052854;28;20918;-64
2021/12/26 12:12:55;;;;;;;9.87;9.13;;;;;;;;;;5052977;28;20411;-65
2021/12/26 12:16:00;;;;;;;9.03;8.23;;;;;;;;;;5053002;28;20398;-68
2021/12/26 12:18:30;;;;;;;6.60;6.00;;;;;;;;;;5031668;28;20919;-65
2021/12/26 12:21:14;;;;;;;6.20;5.90;;;;;;;;;;5034900;28;20408;-68
2021/12/26 12:23:57;;;;;;;6.97;6.37;;;;;;;;;;5048615;28;20427;-64
2021/12/26 12:26:41;;;;;;;6.90;6.20;;;;;;;;;;5056887;28;20523;-64
2021/12/26 12:29:08;;;;;;;7.40;7.00;;;;;;;;;;5056622;28;20410;-68
2021/12/26 12:31:34;;;;;;;8.07;7.47;;;;;;;;;;5056675;28;20431;-67
2021/12/26 12:34:03;;;;;;;13.73;9.73;;;;;;;;;;5056744;28;20415;-64
2021/12/26 12:36:31;;;;;;;8.63;8.07;;;;;;;;;;5056648;28;20403;-66
2021/12/26 12:39:09;;;;;;;8.60;8.00;;;;;;;;;;5056492;28;20399;-63
2021/12/26 12:41:38;;;;;;;9.17;8.40;;;;;;;;;;5056349;28;20407;-64
2021/12/26 12:44:06;;;;;;;8.80;8.00;;;;;;;;;;5056342;28;20414;-64
2021/12/26 12:46:32;;;;;;;7.50;6.90;;;;;;;;;;5056196;28;20965;-63
2021/12/26 12:49:06;;;;;;;8.63;7.90;;;;;;;;;;5056202;28;20476;-63
2021/12/26 12:51:42;;;;;;;8.37;7.77;;;;;;;;;;5056243;28;20414;-63
2021/12/26 12:54:18;;;;;;;8.90;8.20;;;;;;;;;;5056327;28;20402;-64
2021/12/26 12:56:45;;;;;;;8.90;8.30;;;;;;;;;;5056055;28;20415;-63
2021/12/26 12:59:14;;;;;;;9.33;8.53;;;;;;;;;;5056249;28;20407;-66
2021/12/26 13:01:56;;;;;;;11.00;9.80;;;;;;;;;;5056214;28;20407;-64
2021/12/26 13:04:24;;;;;;;13.47;11.77;;;;;;;;;;5055972;28;20406;-69
2021/12/26 13:06:52;;;;;;;16.13;13.07;;;;;;;;;;5055962;28;20567;-69
2021/12/26 13:09:18;;;;;;;9.37;8.67;;;;;;;;;;5055832;28;20461;-64
2021/12/26 13:11:44;;;;;;;9.77;8.87;;;;;;;;;;5055715;28;20475;-63
2021/12/26 13:14:30;;;;;;;8.37;7.57;;;;;;;;;;5055716;28;20914;-71
2021/12/26 13:16:56;;;;;;;9.50;8.70;;;;;;;;;;5054085;28;20984;-71
2021/12/26 13:19:22;;;;;;;8.70;7.90;;;;;;;;;;5055780;28;20570;-70
2021/12/26 13:21:54;;;;;;;8.80;8.20;;;;;;;;;;5055745;28;20424;-70
2021/12/26 13:24:27;;;;;;;11.60;8.90;;;;;;;;;;5055598;28;20410;-69
2021/12/26 13:26:53;;;;;;;10.87;9.80;;;;;;;;;;5055737;28;20468;-69
2021/12/26 13:29:19;;;;;;;10.43;9.53;;;;;;;;;;5055474;28;20396;-68
2021/12/26 13:31:45;;;;;;;9.03;8.33;;;;;;;;;;5054768;28;20403;-70
2021/12/26 13:34:11;;;;;;;9.63;8.57;;;;;;;;;;5055480;28;20866;-68
2021/12/26 13:36:37;;;;;;;9.30;8.60;;;;;;;;;;5055403;28;20465;-71
2021/12/26 13:39:05;;;;;;;10.37;9.50;;;;;;;;;;5055318;28;20427;-66
2021/12/26 13:41:31;;;;;;;10.33;9.33;;;;;;;;;;5055303;28;20399;-64
2021/12/26 13:44:00;;;;;;;13.80;10.23;;;;;;;;;;5055436;28;20768;-64
2021/12/26 13:46:32;;;;;;;10.30;9.40;;;;;;;;;;5055137;28;20554;-63
2021/12/26 13:48:58;;;;;;;10.30;9.40;;;;;;;;;;5055013;28;20800;-64
2021/12/26 13:51:25;;;;;;;12.17;11.10;;;;;;;;;;5055214;28;20396;-64
2021/12/26 13:54:12;;;;;;;13.10;11.80;;;;;;;;;;5055081;28;20414;-64
2021/12/26 13:56:48;;;;;;;11.77;10.57;;;;;;;;;;5050949;28;20830;-66
2021/12/26 13:59:33;;;;;;;11.20;10.20;;;;;;;;;;5054922;28;20926;-66
2021/12/26 14:02:00;;;;;;;10.40;9.50;;;;;;;;;;5055168;28;20406;-64
2021/12/26 14:04:26;;;;;;;10.20;9.30;;;;;;;;;;5054906;28;20911;-64
2021/12/26 14:06:52;;;;;;;10.10;9.20;;;;;;;;;;5054664;28;20469;-69
2021/12/26 14:09:18;;;;;;;10.23;9.40;;;;;;;;;;5054764;28;20899;-65
2021/12/26 14:11:44;;;;;;;27.60;20.50;;;;;;;;;;5054455;28;20466;-63
2021/12/26 14:14:10;;;;;;;13.70;12.10;;;;;;;;;;5054593;28;20818;-65
2021/12/26 14:16:42;;;;;;;40.20;27.27;;;;;;;;;;5054916;28;20418;-68
2021/12/26 14:19:10;;;;;;;23.80;19.63;;;;;;;;;;5054722;28;20399;-70
2021/12/26 14:21:50;;;;;;;19.90;17.60;;;;;;;;;;5054520;28;20383;-69
2021/12/26 14:24:21;;;;;;;18.30;15.30;;;;;;;;;;5054451;28;20464;-69
2021/12/26 14:26:47;;;;;;;16.30;14.70;;;;;;;;;;5054369;28;20466;-70